Time;durP1;ratioP1;P1;durP2;ratioP2;P2;SDS_P1;SDS_P2;PMS_P1;PMS_P2;Temp;Humidity;BMP_temperature;BMP_pressure;BME280_temperature;BME280_humidity;BME280_pressure;Samples;Min_cycle;Max_cycle;Signal;HPM_P1;HPM_P2
2022/12/03 00:02:10;;;;;;;160.47;92.03;;;;;;;;;;4389883;32;20230;-89
2022/12/03 00:04:37;;;;;;;153.83;90.90;;;;;;;;;;4390851;32;20214;-90
2022/12/03 00:07:03;;;;;;;156.70;91.27;;;;;;;;;;4376050;32;20226;-86
2022/12/03 00:09:30;;;;;;;145.40;86.13;;;;;;;;;;4384380;32;20170;-87
2022/12/03 00:11:57;;;;;;;121.43;72.13;;;;;;;;;;4392234;32;20244;-82
2022/12/03 00:14:23;;;;;;;114.03;68.30;;;;;;;;;;4391908;32;20255;-87
2022/12/03 00:16:52;;;;;;;115.17;69.07;;;;;;;;;;4391725;32;20199;-84
2022/12/03 00:19:18;;;;;;;112.83;65.10;;;;;;;;;;4401497;32;20325;-80
2022/12/03 00:21:45;;;;;;;108.67;67.57;;;;;;;;;;4405524;32;20254;-87
2022/12/03 00:24:12;;;;;;;139.40;76.83;;;;;;;;;;4394038;32;20233;-85
2022/12/03 00:26:38;;;;;;;147.60;81.47;;;;;;;;;;4405630;32;20257;-88
2022/12/03 00:29:05;;;;;;;126.73;72.43;;;;;;;;;;4405805;32;20254;-87
2022/12/03 00:31:32;;;;;;;137.27;76.27;;;;;;;;;;4405387;32;20246;-87
2022/12/03 00:34:00;;;;;;;127.97;70.87;;;;;;;;;;4405820;32;20328;-80
2022/12/03 00:36:27;;;;;;;112.47;67.73;;;;;;;;;;4400172;32;20222;-91
2022/12/03 00:38:55;;;;;;;121.73;65.33;;;;;;;;;;4386098;32;20264;-91
2022/12/03 00:41:22;;;;;;;109.07;64.10;;;;;;;;;;4389597;32;20286;-91
2022/12/03 00:43:49;;;;;;;117.57;61.40;;;;;;;;;;4388927;32;20233;-90
2022/12/03 00:46:16;;;;;;;115.53;64.70;;;;;;;;;;4388391;32;20335;-90
2022/12/03 00:48:42;;;;;;;103.00;64.03;;;;;;;;;;4388931;32;20287;-89
2022/12/03 00:51:10;;;;;;;120.30;65.47;;;;;;;;;;4388629;32;20270;-89
2022/12/03 00:53:37;;;;;;;114.57;66.03;;;;;;;;;;4388552;32;20225;-90
2022/12/03 00:56:04;;;;;;;117.60;65.53;;;;;;;;;;4388429;32;20672;-88
2022/12/03 00:58:31;;;;;;;111.43;64.87;;;;;;;;;;4388119;32;20214;-88
2022/12/03 01:00:59;;;;;;;114.50;66.67;;;;;;;;;;4388764;32;20256;-90
2022/12/03 01:03:27;;;;;;;122.57;72.40;;;;;;;;;;4388047;32;20240;-90
2022/12/03 01:05:54;;;;;;;121.27;68.67;;;;;;;;;;4388392;32;20315;-89
2022/12/03 01:08:23;;;;;;;109.53;61.47;;;;;;;;;;4388149;32;20237;-90
2022/12/03 01:10:50;;;;;;;101.60;57.80;;;;;;;;;;4388576;32;20269;-89
2022/12/03 01:13:16;;;;;;;118.43;62.10;;;;;;;;;;4388141;32;20673;-90
2022/12/03 01:15:43;;;;;;;127.97;64.17;;;;;;;;;;4388482;32;20288;-87
2022/12/03 01:18:10;;;;;;;115.83;64.63;;;;;;;;;;4387849;32;20621;-88
2022/12/03 01:20:37;;;;;;;121.57;64.63;;;;;;;;;;4387972;32;20769;-90
2022/12/03 01:23:05;;;;;;;113.87;62.57;;;;;;;;;;4388328;32;20239;-90
2022/12/03 01:25:33;;;;;;;107.80;61.67;;;;;;;;;;4388024;32;20242;-89
2022/12/03 01:28:01;;;;;;;106.57;58.63;;;;;;;;;;4388239;32;20260;-91
2022/12/03 01:32:15;;;;;;;99.97;55.33;;;;;;;;;;4387929;32;20666;-89
2022/12/03 01:33:15;;;;;;;93.47;51.53;;;;;;;;;;4386660;32;20267;-90
2022/12/03 01:35:41;;;;;;;97.90;53.50;;;;;;;;;;4388287;32;20230;-88
2022/12/03 01:38:08;;;;;;;69.73;43.07;;;;;;;;;;4388232;32;20226;-88
2022/12/03 01:40:36;;;;;;;58.13;33.30;;;;;;;;;;4387743;32;20777;-89
2022/12/03 01:43:03;;;;;;;48.90;27.67;;;;;;;;;;4387646;32;20285;-91
2022/12/03 01:45:30;;;;;;;50.17;27.67;;;;;;;;;;4374363;32;20326;-87
2022/12/03 01:47:57;;;;;;;45.70;26.67;;;;;;;;;;4387679;32;20373;-90
2022/12/03 01:50:30;;;;;;;49.00;26.00;;;;;;;;;;4388245;32;20295;-90
2022/12/03 01:53:00;;;;;;;45.87;25.20;;;;;;;;;;4388006;32;20699;-90
2022/12/03 01:55:27;;;;;;;60.97;33.97;;;;;;;;;;4387627;32;20378;-87
2022/12/03 01:57:58;;;;;;;60.03;33.33;;;;;;;;;;4387478;32;20303;-90
2022/12/03 02:00:26;;;;;;;41.27;21.43;;;;;;;;;;4387981;32;20726;-89
2022/12/03 02:02:55;;;;;;;24.13;16.50;;;;;;;;;;4389043;32;20571;-90
2022/12/03 02:05:26;;;;;;;23.40;15.83;;;;;;;;;;4391058;32;20226;-90
2022/12/03 02:07:53;;;;;;;27.97;18.37;;;;;;;;;;4390827;32;20279;-90
2022/12/03 02:10:26;;;;;;;31.27;17.30;;;;;;;;;;4390646;32;20336;-90
2022/12/03 02:13:00;;;;;;;28.87;16.57;;;;;;;;;;4391044;32;20251;-90
2022/12/03 02:15:27;;;;;;;26.50;16.10;;;;;;;;;;4390815;32;20307;-87
2022/12/03 02:17:56;;;;;;;23.73;15.40;;;;;;;;;;4390772;32;20226;-88
2022/12/03 02:20:24;;;;;;;35.67;20.23;;;;;;;;;;4391144;32;20672;-90
2022/12/03 02:23:00;;;;;;;40.93;22.97;;;;;;;;;;4391142;32;20587;-90
2022/12/03 02:25:31;;;;;;;42.70;22.23;;;;;;;;;;4390914;32;20772;-89
2022/12/03 02:27:59;;;;;;;53.00;27.60;;;;;;;;;;4390672;32;20256;-88
2022/12/03 02:30:28;;;;;;;40.97;23.30;;;;;;;;;;4390794;32;20332;-88
2022/12/03 02:32:56;;;;;;;49.90;23.93;;;;;;;;;;4390287;32;20634;-88
2022/12/03 02:35:25;;;;;;;42.53;23.97;;;;;;;;;;4390726;32;20255;-91
2022/12/03 02:37:56;;;;;;;49.80;25.37;;;;;;;;;;4390773;32;20364;-90
2022/12/03 02:40:27;;;;;;;46.13;25.77;;;;;;;;;;4390530;32;20226;-87
2022/12/03 02:42:58;;;;;;;49.70;27.17;;;;;;;;;;4393947;32;20174;-90
2022/12/03 02:45:28;;;;;;;41.03;25.20;;;;;;;;;;4408212;32;20358;-83
2022/12/03 02:47:59;;;;;;;51.30;27.30;;;;;;;;;;4408192;32;20206;-88
2022/12/03 02:50:29;;;;;;;49.43;27.03;;;;;;;;;;4401993;32;20245;-91
2022/12/03 02:53:00;;;;;;;54.27;27.87;;;;;;;;;;4396755;32;20257;-90
2022/12/03 02:55:29;;;;;;;49.60;27.03;;;;;;;;;;4415802;27;20274;-85
2022/12/03 02:57:57;;;;;;;49.50;25.00;;;;;;;;;;4390120;32;20276;-90
2022/12/03 03:00:24;;;;;;;41.47;26.20;;;;;;;;;;4390041;32;20225;-89
2022/12/03 03:02:51;;;;;;;40.20;23.00;;;;;;;;;;4390016;32;20761;-88
2022/12/03 03:05:20;;;;;;;42.20;22.33;;;;;;;;;;4390100;32;20327;-90
2022/12/03 03:07:48;;;;;;;37.23;22.70;;;;;;;;;;4390226;32;20237;-86
2022/12/03 03:10:17;;;;;;;32.23;20.63;;;;;;;;;;4388205;32;20629;-88
2022/12/03 03:12:44;;;;;;;29.90;20.50;;;;;;;;;;4374704;32;20786;-88
2022/12/03 03:15:13;;;;;;;33.23;20.13;;;;;;;;;;4373774;32;20316;-91
2022/12/03 03:17:42;;;;;;;30.77;19.63;;;;;;;;;;4375119;32;20277;-89
2022/12/03 03:20:10;;;;;;;32.73;19.57;;;;;;;;;;4374916;32;20233;-87
2022/12/03 03:22:39;;;;;;;26.97;17.93;;;;;;;;;;4374985;32;20257;-90
2022/12/03 03:25:09;;;;;;;32.40;19.53;;;;;;;;;;4375101;32;20291;-90
2022/12/03 03:27:37;;;;;;;33.80;21.33;;;;;;;;;;4374856;32;20249;-87
2022/12/03 03:30:05;;;;;;;27.67;18.67;;;;;;;;;;4374976;32;20307;-89
2022/12/03 03:32:34;;;;;;;27.60;17.63;;;;;;;;;;4374492;32;20288;-84
2022/12/03 03:35:01;;;;;;;26.13;18.00;;;;;;;;;;4375052;32;20321;-92
2022/12/03 03:37:29;;;;;;;26.20;17.73;;;;;;;;;;4375443;32;20675;-89
2022/12/03 03:39:56;;;;;;;29.57;19.13;;;;;;;;;;4384396;32;20230;-90
2022/12/03 03:42:23;;;;;;;38.30;25.13;;;;;;;;;;4389552;32;20268;-93
2022/12/03 03:44:50;;;;;;;37.03;23.13;;;;;;;;;;4389542;32;20234;-91
2022/12/03 03:47:17;;;;;;;35.60;25.03;;;;;;;;;;4389044;32;20302;-90
2022/12/03 03:49:49;;;;;;;36.20;23.07;;;;;;;;;;4389772;32;20265;-90
2022/12/03 03:52:17;;;;;;;30.80;22.33;;;;;;;;;;4389672;32;20222;-88
2022/12/03 03:54:43;;;;;;;34.67;23.33;;;;;;;;;;4389116;32;20364;-93
2022/12/03 03:57:11;;;;;;;37.33;21.33;;;;;;;;;;4389465;32;20238;-87
2022/12/03 03:59:38;;;;;;;28.97;19.07;;;;;;;;;;4389342;32;20233;-90
2022/12/03 04:02:06;;;;;;;24.93;16.93;;;;;;;;;;4389438;32;20718;-89
2022/12/03 04:04:36;;;;;;;33.63;19.43;;;;;;;;;;4389090;32;20264;-87
2022/12/03 04:07:04;;;;;;;27.00;18.10;;;;;;;;;;4374150;32;20239;-92
2022/12/03 04:09:31;;;;;;;28.47;17.00;;;;;;;;;;4374134;32;20366;-90
2022/12/03 04:14:42;;;;;;;30.43;18.20;;;;;;;;;;4388784;32;20340;-85
2022/12/03 04:17:08;;;;;;;26.43;18.73;;;;;;;;;;4388542;32;20671;-87
2022/12/03 04:19:34;;;;;;;28.03;18.20;;;;;;;;;;4389090;32;20316;-94
2022/12/03 04:24:47;;;;;;;28.80;18.13;;;;;;;;;;4388570;32;20634;-87
2022/12/03 04:29:58;;;;;;;31.20;18.00;;;;;;;;;;4388834;32;20248;-88
2022/12/03 04:37:54;;;;;;;29.50;19.03;;;;;;;;;;4388656;32;20622;-94
2022/12/03 04:43:06;;;;;;;37.47;21.07;;;;;;;;;;4388213;32;20241;-91
2022/12/03 04:45:33;;;;;;;30.60;19.67;;;;;;;;;;4388284;32;20682;-88
2022/12/03 04:48:00;;;;;;;35.30;21.10;;;;;;;;;;4388815;32;20758;-88
2022/12/03 04:50:27;;;;;;;30.27;20.63;;;;;;;;;;4388820;32;20287;-94
2022/12/03 04:52:54;;;;;;;35.97;21.73;;;;;;;;;;4388838;32;20671;-89
2022/12/03 04:55:22;;;;;;;39.43;23.27;;;;;;;;;;4388300;32;20269;-88
2022/12/03 04:57:49;;;;;;;27.97;20.47;;;;;;;;;;4388243;32;20217;-87
2022/12/03 05:00:16;;;;;;;34.03;20.83;;;;;;;;;;4387891;32;20281;-87
2022/12/03 05:02:43;;;;;;;31.10;18.63;;;;;;;;;;4388190;32;20253;-89
2022/12/03 05:05:10;;;;;;;35.10;22.73;;;;;;;;;;4388255;32;20255;-86
2022/12/03 05:07:37;;;;;;;32.10;21.57;;;;;;;;;;4388313;32;20244;-89
2022/12/03 05:10:05;;;;;;;38.17;21.90;;;;;;;;;;4388281;32;20308;-88
2022/12/03 05:12:33;;;;;;;32.20;23.80;;;;;;;;;;4388071;32;20389;-87
2022/12/03 05:15:00;;;;;;;34.63;24.83;;;;;;;;;;4388058;32;20291;-90
2022/12/03 05:17:27;;;;;;;38.90;26.07;;;;;;;;;;4388340;32;20284;-92
2022/12/03 05:22:39;;;;;;;41.33;24.83;;;;;;;;;;4388170;32;20289;-89
2022/12/03 05:25:07;;;;;;;37.60;25.40;;;;;;;;;;4387982;32;20480;-89
2022/12/03 05:27:35;;;;;;;38.33;27.43;;;;;;;;;;4387939;32;20267;-93
2022/12/03 05:30:02;;;;;;;38.73;26.20;;;;;;;;;;4387902;32;20317;-90
2022/12/03 05:32:29;;;;;;;40.97;31.47;;;;;;;;;;4388239;32;20671;-89
2022/12/03 05:34:56;;;;;;;43.30;31.63;;;;;;;;;;4388072;32;20233;-91
2022/12/03 05:37:23;;;;;;;51.27;32.77;;;;;;;;;;4388955;32;20301;-92
2022/12/03 05:39:50;;;;;;;48.67;33.83;;;;;;;;;;4389929;32;20268;-89
2022/12/03 05:45:03;;;;;;;59.90;37.47;;;;;;;;;;4391004;32;20924;-93
2022/12/03 05:47:31;;;;;;;62.07;36.60;;;;;;;;;;4390970;32;20218;-90
2022/12/03 05:49:58;;;;;;;61.27;39.33;;;;;;;;;;4389632;32;20249;-88
2022/12/03 05:52:24;;;;;;;60.27;35.20;;;;;;;;;;4390783;32;20229;-88
2022/12/03 05:54:52;;;;;;;59.70;36.77;;;;;;;;;;4390223;32;20289;-90
2022/12/03 05:57:19;;;;;;;65.40;35.70;;;;;;;;;;4390801;32;20759;-86
2022/12/03 05:59:46;;;;;;;58.83;37.30;;;;;;;;;;4391030;32;20510;-80
2022/12/03 06:02:14;;;;;;;57.33;33.53;;;;;;;;;;4390947;32;20564;-92
2022/12/03 06:04:41;;;;;;;69.40;40.67;;;;;;;;;;4391099;32;20291;-87
2022/12/03 06:07:09;;;;;;;62.60;39.97;;;;;;;;;;4391137;32;20316;-88
2022/12/03 06:09:36;;;;;;;61.50;35.20;;;;;;;;;;4391076;32;20217;-86
2022/12/03 06:12:05;;;;;;;59.73;34.30;;;;;;;;;;4390717;32;20681;-90
2022/12/03 06:14:33;;;;;;;68.97;37.20;;;;;;;;;;4390416;32;20563;-91
2022/12/03 06:17:01;;;;;;;64.27;37.93;;;;;;;;;;4390988;32;20252;-87
2022/12/03 06:19:29;;;;;;;56.97;37.83;;;;;;;;;;4391170;32;20249;-89
2022/12/03 06:21:56;;;;;;;62.43;40.13;;;;;;;;;;4393973;32;20237;-90
2022/12/03 06:24:23;;;;;;;76.33;44.27;;;;;;;;;;4401937;32;20575;-86
2022/12/03 06:26:49;;;;;;;131.10;66.77;;;;;;;;;;4406464;32;20326;-84
2022/12/03 06:29:16;;;;;;;121.40;70.93;;;;;;;;;;4406815;32;20267;-90
2022/12/03 06:31:44;;;;;;;119.83;69.60;;;;;;;;;;4408894;32;20297;-92
2022/12/03 06:34:11;;;;;;;122.20;76.53;;;;;;;;;;4408984;32;20244;-83
2022/12/03 06:36:39;;;;;;;155.00;82.97;;;;;;;;;;4404547;32;20641;-87
2022/12/03 06:39:06;;;;;;;146.70;84.77;;;;;;;;;;4403422;32;20787;-81
2022/12/03 06:41:32;;;;;;;142.30;79.40;;;;;;;;;;4383806;32;20377;-91
2022/12/03 06:43:59;;;;;;;126.40;77.87;;;;;;;;;;4402117;32;20243;-88
2022/12/03 06:46:26;;;;;;;129.50;72.67;;;;;;;;;;4402197;32;20303;-88
2022/12/03 06:48:53;;;;;;;140.50;77.57;;;;;;;;;;4394966;32;20768;-87
2022/12/03 06:51:20;;;;;;;134.40;78.97;;;;;;;;;;4391199;32;20233;-88
2022/12/03 06:53:48;;;;;;;145.87;82.93;;;;;;;;;;4391730;32;20221;-89
2022/12/03 06:56:15;;;;;;;157.87;92.63;;;;;;;;;;4389751;32;20308;-88
2022/12/03 06:58:42;;;;;;;145.37;81.77;;;;;;;;;;4364172;32;20244;-92
2022/12/03 07:01:09;;;;;;;138.40;80.80;;;;;;;;;;4389522;32;20249;-86
2022/12/03 07:03:37;;;;;;;163.03;91.50;;;;;;;;;;4389893;32;20234;-89
2022/12/03 07:06:06;;;;;;;183.57;95.07;;;;;;;;;;4389983;32;20610;-90
2022/12/03 07:08:32;;;;;;;185.73;98.60;;;;;;;;;;4389992;32;20335;-89
2022/12/03 07:11:01;;;;;;;161.33;92.33;;;;;;;;;;4390249;32;20303;-86
2022/12/03 07:13:27;;;;;;;168.40;94.00;;;;;;;;;;4389645;32;20218;-88
2022/12/03 07:15:54;;;;;;;166.73;90.43;;;;;;;;;;4389444;32;20272;-91
2022/12/03 07:18:21;;;;;;;153.33;83.10;;;;;;;;;;4389754;32;20218;-90
2022/12/03 07:20:48;;;;;;;174.57;93.60;;;;;;;;;;4389688;32;20314;-90
2022/12/03 07:23:17;;;;;;;184.07;98.37;;;;;;;;;;4389753;32;20266;-87
2022/12/03 07:25:44;;;;;;;158.83;89.80;;;;;;;;;;4390109;32;20328;-86
2022/12/03 07:28:12;;;;;;;178.00;93.40;;;;;;;;;;4389109;32;20241;-83
2022/12/03 07:30:39;;;;;;;149.13;81.80;;;;;;;;;;4388518;32;20237;-82
2022/12/03 07:33:06;;;;;;;135.40;76.93;;;;;;;;;;4388995;32;20618;-85
2022/12/03 07:35:33;;;;;;;133.97;70.77;;;;;;;;;;4388930;32;20312;-83
2022/12/03 07:38:01;;;;;;;104.77;63.53;;;;;;;;;;4389211;32;20254;-80
2022/12/03 07:40:30;;;;;;;132.60;70.10;;;;;;;;;;4378669;32;20237;-86
2022/12/03 07:42:57;;;;;;;125.10;72.97;;;;;;;;;;4373623;32;20791;-82
2022/12/03 07:45:25;;;;;;;130.97;75.73;;;;;;;;;;4373523;32;20544;-83
2022/12/03 07:47:52;;;;;;;112.63;62.83;;;;;;;;;;4373603;32;20234;-77
2022/12/03 07:50:18;;;;;;;103.60;64.90;;;;;;;;;;4373952;32;20233;-87
2022/12/03 07:52:45;;;;;;;97.77;64.53;;;;;;;;;;4384416;32;20730;-86
2022/12/03 07:55:14;;;;;;;85.83;56.07;;;;;;;;;;4386955;32;20241;-83
2022/12/03 07:57:41;;;;;;;90.77;57.97;;;;;;;;;;4387235;32;20304;-85
2022/12/03 08:00:08;;;;;;;89.03;56.13;;;;;;;;;;4386221;32;20287;-81
2022/12/03 08:02:36;;;;;;;82.50;51.53;;;;;;;;;;4387333;32;20237;-83
2022/12/03 08:05:04;;;;;;;54.93;36.23;;;;;;;;;;4387356;32;20316;-84
2022/12/03 08:07:32;;;;;;;47.07;28.90;;;;;;;;;;4388353;32;20286;-84
2022/12/03 08:09:58;;;;;;;56.60;33.60;;;;;;;;;;4387985;32;20245;-90
2022/12/03 08:12:38;;;;;;;51.17;32.83;;;;;;;;;;4386667;32;20877;-87
2022/12/03 08:15:09;;;;;;;39.63;26.93;;;;;;;;;;4387976;32;20226;-91
2022/12/03 08:17:39;;;;;;;44.87;29.70;;;;;;;;;;4386512;32;20583;-86
2022/12/03 08:20:14;;;;;;;42.60;28.40;;;;;;;;;;4387208;32;20241;-82
2022/12/03 08:22:41;;;;;;;54.67;33.27;;;;;;;;;;4387303;32;20257;-85
2022/12/03 08:25:17;;;;;;;45.63;28.67;;;;;;;;;;4385874;32;20218;-90
2022/12/03 08:27:44;;;;;;;61.83;36.23;;;;;;;;;;4386975;32;20331;-84
2022/12/03 08:30:14;;;;;;;52.87;33.43;;;;;;;;;;4371765;32;20275;-88
2022/12/03 08:32:45;;;;;;;63.40;38.33;;;;;;;;;;4372480;32;20285;-89
2022/12/03 08:35:13;;;;;;;56.23;33.67;;;;;;;;;;4373502;32;20245;-85
2022/12/03 08:37:40;;;;;;;69.20;45.13;;;;;;;;;;4373048;32;20233;-86
2022/12/03 08:40:21;;;;;;;59.80;39.83;;;;;;;;;;4384347;32;20302;-92
2022/12/03 08:42:50;;;;;;;71.13;40.20;;;;;;;;;;4388286;32;20311;-92
2022/12/03 08:45:40;;;;;;;63.10;36.23;;;;;;;;;;4387875;32;20246;-91
2022/12/03 08:48:28;;;;;;;45.10;26.47;;;;;;;;;;4388784;32;20291;-90
2022/12/03 08:50:55;;;;;;;50.73;28.10;;;;;;;;;;4388298;32;20209;-91
2022/12/03 08:53:58;;;;;;;50.57;27.80;;;;;;;;;;4388023;32;20245;-81
2022/12/03 08:56:26;;;;;;;41.00;23.87;;;;;;;;;;4387669;32;20237;-80
2022/12/03 08:58:56;;;;;;;48.50;28.80;;;;;;;;;;4387588;32;20222;-85
2022/12/03 09:01:33;;;;;;;45.87;27.80;;;;;;;;;;4373107;32;20949;-84
2022/12/03 09:04:19;;;;;;;50.13;27.97;;;;;;;;;;4373092;32;20225;-87
2022/12/03 09:06:46;;;;;;;39.23;23.63;;;;;;;;;;4372725;32;20233;-86
2022/12/03 09:09:13;;;;;;;40.83;23.77;;;;;;;;;;4373320;32;20313;-85
2022/12/03 09:11:41;;;;;;;43.83;27.23;;;;;;;;;;4372141;32;20257;-85
2022/12/03 09:14:09;;;;;;;56.97;34.87;;;;;;;;;;4371935;32;20249;-85
2022/12/03 09:16:36;;;;;;;36.57;24.10;;;;;;;;;;4372623;32;20264;-87
2022/12/03 09:19:05;;;;;;;124.77;76.13;;;;;;;;;;4372458;32;20259;-88
2022/12/03 09:21:31;;;;;;;58.73;35.90;;;;;;;;;;4372592;32;20237;-88
2022/12/03 09:23:58;;;;;;;53.53;33.80;;;;;;;;;;4372748;32;20230;-83
2022/12/03 09:26:25;;;;;;;53.73;30.97;;;;;;;;;;4377357;32;20702;-77
2022/12/03 09:28:52;;;;;;;47.97;28.70;;;;;;;;;;4387081;32;20221;-86
2022/12/03 09:31:19;;;;;;;46.40;31.80;;;;;;;;;;4387231;32;20275;-85
2022/12/03 09:33:46;;;;;;;52.30;31.90;;;;;;;;;;4386373;32;20242;-78
2022/12/03 09:36:15;;;;;;;53.27;28.60;;;;;;;;;;4385318;32;20258;-85
2022/12/03 09:38:41;;;;;;;45.57;28.73;;;;;;;;;;4386327;32;20218;-84
2022/12/03 09:41:09;;;;;;;52.43;34.33;;;;;;;;;;4372078;32;20583;-89
2022/12/03 09:43:36;;;;;;;54.03;33.67;;;;;;;;;;4375427;32;20264;-91
2022/12/03 09:46:04;;;;;;;51.63;32.03;;;;;;;;;;4375147;32;20218;-87
2022/12/03 09:48:31;;;;;;;55.67;35.67;;;;;;;;;;4371526;32;20215;-92
2022/12/03 09:50:58;;;;;;;89.43;51.90;;;;;;;;;;4371284;32;20271;-88
2022/12/03 09:53:27;;;;;;;54.97;32.33;;;;;;;;;;4382879;32;20301;-84
2022/12/03 09:55:57;;;;;;;41.87;27.40;;;;;;;;;;4370966;32;20439;-82
2022/12/03 09:58:27;;;;;;;65.60;34.47;;;;;;;;;;4371157;32;20355;-86
2022/12/03 10:00:54;;;;;;;50.30;31.83;;;;;;;;;;4382954;32;20475;-85
2022/12/03 10:03:24;;;;;;;50.10;34.50;;;;;;;;;;4386613;32;20670;-88
2022/12/03 10:05:53;;;;;;;69.07;47.07;;;;;;;;;;4386465;32;20206;-83
2022/12/03 10:08:24;;;;;;;72.73;48.90;;;;;;;;;;4388423;32;20226;-88
2022/12/03 10:10:56;;;;;;;63.30;42.00;;;;;;;;;;4387446;32;20256;-90
2022/12/03 10:13:29;;;;;;;141.60;84.67;;;;;;;;;;4388174;32;20225;-87
2022/12/03 10:15:59;;;;;;;71.53;49.70;;;;;;;;;;4390630;32;20692;-89
2022/12/03 10:18:29;;;;;;;95.93;57.93;;;;;;;;;;4401056;32;20258;-85
2022/12/03 10:20:56;;;;;;;70.20;44.40;;;;;;;;;;4407053;32;20243;-90
2022/12/03 10:23:26;;;;;;;73.13;46.23;;;;;;;;;;4400422;32;20655;-88
2022/12/03 10:25:56;;;;;;;106.37;57.77;;;;;;;;;;4389836;32;20267;-87
2022/12/03 10:28:29;;;;;;;73.90;43.80;;;;;;;;;;4393274;32;20237;-84
2022/12/03 10:30:57;;;;;;;128.03;63.27;;;;;;;;;;4390126;32;20229;-91
2022/12/03 10:33:29;;;;;;;111.40;61.77;;;;;;;;;;4389370;32;20226;-88
2022/12/03 10:35:56;;;;;;;61.53;37.77;;;;;;;;;;4389672;32;20240;-81
2022/12/03 10:38:24;;;;;;;88.30;46.93;;;;;;;;;;4390245;32;20260;-87
2022/12/03 10:40:51;;;;;;;129.77;69.37;;;;;;;;;;4378673;32;20315;-87
2022/12/03 10:43:23;;;;;;;73.20;46.33;;;;;;;;;;4389199;32;20248;-79
2022/12/03 10:45:51;;;;;;;61.90;42.97;;;;;;;;;;4389770;32;20234;-80
2022/12/03 10:48:24;;;;;;;93.97;52.63;;;;;;;;;;4389390;32;20275;-79
2022/12/03 10:50:52;;;;;;;77.87;49.17;;;;;;;;;;4389361;32;20280;-88
2022/12/03 10:53:21;;;;;;;94.33;55.83;;;;;;;;;;4389262;32;20621;-89
2022/12/03 10:55:51;;;;;;;65.63;44.63;;;;;;;;;;4388897;32;20313;-91
2022/12/03 10:58:24;;;;;;;59.20;37.60;;;;;;;;;;4388962;32;20213;-90
2022/12/03 11:00:52;;;;;;;50.77;35.33;;;;;;;;;;4390001;32;20229;-85
2022/12/03 11:03:21;;;;;;;54.80;35.67;;;;;;;;;;4389859;32;20748;-87
2022/12/03 11:05:49;;;;;;;48.80;32.33;;;;;;;;;;4390396;32;20222;-84
2022/12/03 11:08:18;;;;;;;63.17;42.17;;;;;;;;;;4391949;32;20279;-81
2022/12/03 11:10:45;;;;;;;129.93;83.50;;;;;;;;;;4390019;32;20311;-87
2022/12/03 11:13:38;;;;;;;81.80;56.10;;;;;;;;;;4390713;32;20280;-89
2022/12/03 11:16:06;;;;;;;83.03;55.63;;;;;;;;;;4390867;32;20708;-86
2022/12/03 11:19:01;;;;;;;59.80;39.00;;;;;;;;;;4390272;32;20229;-90
2022/12/03 11:21:28;;;;;;;45.67;31.50;;;;;;;;;;4383907;32;20681;-87
2022/12/03 11:24:20;;;;;;;52.13;34.53;;;;;;;;;;4389381;32;20273;-86
2022/12/03 11:27:15;;;;;;;47.70;32.63;;;;;;;;;;4378387;32;20257;-85
2022/12/03 11:30:08;;;;;;;51.67;35.07;;;;;;;;;;4389319;32;20229;-87
2022/12/03 11:33:02;;;;;;;27.57;19.07;;;;;;;;;;4389705;32;20223;-83
2022/12/03 11:35:50;;;;;;;49.03;30.57;;;;;;;;;;4385805;32;20609;-83
2022/12/03 11:38:54;;;;;;;63.03;39.87;;;;;;;;;;4384751;32;20249;-81
2022/12/03 11:41:26;;;;;;;46.03;30.90;;;;;;;;;;4384770;32;20269;-81
2022/12/03 11:44:31;;;;;;;44.37;31.17;;;;;;;;;;4383398;32;20275;-78
2022/12/03 11:47:08;;;;;;;55.77;39.20;;;;;;;;;;4397501;32;20253;-84
2022/12/03 11:49:39;;;;;;;82.27;51.57;;;;;;;;;;4399166;32;20346;-84
2022/12/03 11:52:23;;;;;;;71.00;49.53;;;;;;;;;;4398876;32;20301;-81
2022/12/03 11:54:53;;;;;;;60.60;38.83;;;;;;;;;;4399843;32;20282;-85
2022/12/03 11:57:28;;;;;;;54.50;39.87;;;;;;;;;;4401119;32;20226;-88
2022/12/03 12:00:13;;;;;;;66.53;42.83;;;;;;;;;;4399679;32;20304;-87
2022/12/03 12:02:41;;;;;;;54.17;34.80;;;;;;;;;;4395130;32;20804;-86
2022/12/03 12:05:20;;;;;;;59.17;37.33;;;;;;;;;;4388805;32;20244;-85
2022/12/03 12:07:47;;;;;;;57.37;36.40;;;;;;;;;;4389554;32;20230;-83
2022/12/03 12:10:15;;;;;;;56.77;37.13;;;;;;;;;;4388710;32;20252;-80
2022/12/03 12:12:44;;;;;;;52.30;34.73;;;;;;;;;;4388826;32;20279;-87
2022/12/03 12:15:45;;;;;;;40.77;27.13;;;;;;;;;;4384140;32;20237;-90
2022/12/03 12:18:36;;;;;;;43.70;29.00;;;;;;;;;;4389618;32;20287;-86
2022/12/03 12:21:41;;;;;;;41.33;29.43;;;;;;;;;;4391028;32;20338;-87
2022/12/03 12:24:31;;;;;;;35.27;23.67;;;;;;;;;;4391882;32;20290;-84
2022/12/03 12:26:59;;;;;;;34.80;22.83;;;;;;;;;;4395051;32;20250;-81
2022/12/03 12:29:26;;;;;;;35.07;25.23;;;;;;;;;;4398568;32;20657;-82
2022/12/03 12:32:00;;;;;;;35.77;22.67;;;;;;;;;;4394683;32;20435;-81
2022/12/03 12:34:28;;;;;;;38.23;25.50;;;;;;;;;;4393406;32;20581;-86
2022/12/03 12:36:59;;;;;;;107.43;57.33;;;;;;;;;;4399046;32;20232;-84
2022/12/03 12:39:26;;;;;;;156.23;81.77;;;;;;;;;;4398764;32;20305;-90
2022/12/03 12:41:54;;;;;;;95.57;56.77;;;;;;;;;;4396986;32;20271;-78
2022/12/03 12:44:25;;;;;;;39.20;24.23;;;;;;;;;;4398304;32;20275;-88
2022/12/03 12:46:53;;;;;;;30.63;21.43;;;;;;;;;;4395163;32;20238;-85
2022/12/03 12:49:25;;;;;;;28.23;20.40;;;;;;;;;;4394903;32;20229;-88
2022/12/03 12:51:54;;;;;;;24.67;18.63;;;;;;;;;;4389556;32;20238;-85
2022/12/03 12:54:20;;;;;;;31.37;21.20;;;;;;;;;;4382749;32;20234;-86
2022/12/03 12:56:49;;;;;;;37.63;24.20;;;;;;;;;;4387243;32;20241;-82
2022/12/03 12:59:18;;;;;;;51.00;33.43;;;;;;;;;;4385656;32;20332;-86
2022/12/03 13:01:46;;;;;;;61.87;34.83;;;;;;;;;;4386906;32;20234;-82
2022/12/03 13:04:14;;;;;;;30.60;23.60;;;;;;;;;;4386936;32;20585;-83
2022/12/03 13:06:42;;;;;;;33.07;23.97;;;;;;;;;;4387060;32;20225;-86
2022/12/03 13:09:15;;;;;;;21.47;16.03;;;;;;;;;;4386757;32;20230;-88
2022/12/03 13:11:44;;;;;;;48.47;28.10;;;;;;;;;;4387842;32;20269;-91
2022/12/03 13:14:16;;;;;;;23.77;17.20;;;;;;;;;;4387177;32;20267;-84
2022/12/03 13:16:43;;;;;;;31.70;18.53;;;;;;;;;;4387114;32;20597;-86
2022/12/03 13:19:22;;;;;;;37.73;23.23;;;;;;;;;;4387021;32;20315;-89
2022/12/03 13:21:50;;;;;;;27.87;19.83;;;;;;;;;;4387008;32;20218;-90
2022/12/03 13:24:43;;;;;;;29.83;19.20;;;;;;;;;;4387539;32;20316;-81
2022/12/03 13:27:24;;;;;;;26.23;19.67;;;;;;;;;;4385440;32;20277;-86
2022/12/03 13:29:54;;;;;;;29.13;20.10;;;;;;;;;;4386861;32;20249;-93
2022/12/03 13:32:26;;;;;;;97.33;52.53;;;;;;;;;;4387389;32;20257;-81
2022/12/03 13:34:54;;;;;;;70.93;43.27;;;;;;;;;;4387293;32;20837;-89
2022/12/03 13:37:25;;;;;;;24.77;17.23;;;;;;;;;;4387002;32;20333;-85
2022/12/03 13:39:56;;;;;;;22.23;15.37;;;;;;;;;;4381091;32;20661;-85
2022/12/03 13:42:41;;;;;;;18.83;13.73;;;;;;;;;;4372178;32;20222;-94
2022/12/03 13:45:34;;;;;;;96.03;61.33;;;;;;;;;;4371919;32;20247;-87
2022/12/03 13:48:02;;;;;;;22.83;17.43;;;;;;;;;;4368025;32;20281;-87
2022/12/03 13:50:34;;;;;;;68.03;49.37;;;;;;;;;;4371670;32;20218;-79
2022/12/03 13:53:01;;;;;;;43.03;31.73;;;;;;;;;;4373501;32;20233;-81
2022/12/03 13:55:31;;;;;;;38.30;22.80;;;;;;;;;;4387105;32;20283;-84
2022/12/03 13:57:58;;;;;;;31.33;22.03;;;;;;;;;;4386316;32;20244;-91
2022/12/03 14:00:25;;;;;;;29.53;20.40;;;;;;;;;;4389809;32;20221;-85
2022/12/03 14:02:51;;;;;;;40.67;26.30;;;;;;;;;;4390267;32;20263;-91
2022/12/03 14:05:18;;;;;;;45.13;28.47;;;;;;;;;;4389516;32;20597;-91
2022/12/03 14:07:45;;;;;;;80.63;45.50;;;;;;;;;;4389904;32;20252;-85
2022/12/03 14:10:12;;;;;;;52.90;34.03;;;;;;;;;;4391232;32;20241;-85
2022/12/03 14:12:40;;;;;;;47.07;29.83;;;;;;;;;;4392303;32;20218;-92
2022/12/03 14:15:10;;;;;;;44.13;28.00;;;;;;;;;;4401999;32;20350;-80
2022/12/03 14:17:37;;;;;;;42.03;28.17;;;;;;;;;;4409414;32;20300;-81
2022/12/03 14:20:04;;;;;;;46.77;30.97;;;;;;;;;;4405140;32;20329;-78
2022/12/03 14:22:31;;;;;;;33.23;24.00;;;;;;;;;;4393618;32;20299;-81
2022/12/03 14:24:58;;;;;;;24.83;18.57;;;;;;;;;;4391211;32;20257;-77
2022/12/03 14:27:26;;;;;;;24.63;17.50;;;;;;;;;;4389105;32;20213;-79
2022/12/03 14:29:54;;;;;;;27.63;20.03;;;;;;;;;;4389097;32;20233;-85
2022/12/03 14:32:21;;;;;;;26.23;18.80;;;;;;;;;;4389628;32;20683;-81
2022/12/03 14:34:48;;;;;;;31.33;19.13;;;;;;;;;;4389088;32;20320;-84
2022/12/03 14:37:15;;;;;;;32.33;21.23;;;;;;;;;;4389561;32;20657;-81
2022/12/03 14:39:43;;;;;;;33.87;22.37;;;;;;;;;;4389150;32;20237;-82
2022/12/03 14:42:12;;;;;;;32.20;22.23;;;;;;;;;;4389163;32;20735;-84
2022/12/03 14:44:39;;;;;;;27.77;19.93;;;;;;;;;;4389215;32;21122;-83
2022/12/03 14:47:07;;;;;;;28.07;20.27;;;;;;;;;;4389377;32;20221;-84
2022/12/03 14:49:35;;;;;;;34.90;20.97;;;;;;;;;;4388709;32;20696;-84
2022/12/03 14:52:02;;;;;;;33.23;21.37;;;;;;;;;;4389034;32;20209;-78